createdAt,value
2023-01-05T00:01:03.023Z,2.08
2023-01-05T00:03:30.769Z,2.47
2023-01-05T00:06:02.099Z,2.13
2023-01-05T00:08:36.746Z,1.63
2023-01-05T00:11:23.220Z,1.95
2023-01-05T00:14:08.578Z,1.65
2023-01-05T00:16:53.870Z,2.47
2023-01-05T00:19:39.235Z,1.75
2023-01-05T00:22:34.631Z,2.33
2023-01-05T00:25:12.119Z,1.60
2023-01-05T00:27:41.660Z,2.08
2023-01-05T00:30:10.571Z,2.70
2023-01-05T00:32:38.491Z,2.72
2023-01-05T00:35:06.466Z,1.83
2023-01-05T00:37:36.204Z,2.25
2023-01-05T00:40:06.229Z,2.30
2023-01-05T00:42:33.889Z,1.77
2023-01-05T00:45:01.594Z,1.77
2023-01-05T00:47:29.193Z,1.55
2023-01-05T00:49:56.847Z,2.25
2023-01-05T00:52:24.382Z,1.52
2023-01-05T00:54:52.198Z,2.15
2023-01-05T00:57:21.177Z,2.60
2023-01-05T00:59:48.776Z,2.42
2023-01-05T01:02:16.877Z,2.15
2023-01-05T01:04:44.602Z,1.67
2023-01-05T01:07:12.186Z,2.22
2023-01-05T01:09:41.292Z,1.50
2023-01-05T01:12:09.061Z,2.90
2023-01-05T01:14:39.253Z,2.40
2023-01-05T01:17:06.917Z,1.63
2023-01-05T01:19:34.733Z,1.83
2023-01-05T01:22:02.616Z,2.38
2023-01-05T01:24:30.553Z,2.60
2023-01-05T01:26:58.198Z,2.28
2023-01-05T01:29:25.780Z,1.73
2023-01-05T01:31:54.889Z,2.13
2023-01-05T01:34:23.276Z,1.98
2023-01-05T01:36:51.084Z,2.80
2023-01-05T01:39:18.681Z,2.33
2023-01-05T01:41:46.438Z,2.10
2023-01-05T01:44:47.831Z,3.28
2023-01-05T01:47:21.986Z,2.00
2023-01-05T01:49:50.324Z,1.70
2023-01-05T01:52:18.627Z,1.70
2023-01-05T01:54:47.080Z,1.85
2023-01-05T01:57:16.089Z,2.47
2023-01-05T01:59:44.332Z,2.65
2023-01-05T02:02:14.531Z,2.05
2023-01-05T02:04:45.611Z,2.60
2023-01-05T02:07:16.051Z,2.55
2023-01-05T02:09:44.788Z,2.42
2023-01-05T02:12:26.100Z,1.48
2023-01-05T02:15:01.711Z,1.75
2023-01-05T02:17:39.431Z,1.50
2023-01-05T02:20:40.338Z,1.65
2023-01-05T02:23:40.062Z,1.73
2023-01-05T02:26:40.080Z,1.35
2023-01-05T02:29:43.861Z,1.45
2023-01-05T02:32:18.168Z,1.13
2023-01-05T02:34:53.533Z,2.33
2023-01-05T02:37:29.065Z,1.05
2023-01-05T02:40:01.140Z,2.75
2023-01-05T02:42:32.866Z,1.30
2023-01-05T02:45:02.733Z,2.13
2023-01-05T02:47:39.498Z,1.35
2023-01-05T02:50:12.475Z,2.08
2023-01-05T02:52:44.509Z,1.80
2023-01-05T02:55:16.646Z,0.98
2023-01-05T02:57:53.709Z,1.40
2023-01-05T03:00:26.311Z,1.55
2023-01-05T03:02:59.210Z,1.13
2023-01-05T03:05:32.840Z,1.38
2023-01-05T03:08:07.868Z,1.90
2023-01-05T03:10:58.968Z,1.42
2023-01-05T03:13:50.586Z,1.08
2023-01-05T03:16:23.809Z,1.45
2023-01-05T03:19:13.244Z,1.90
2023-01-05T03:21:59.496Z,2.33
2023-01-05T03:24:44.812Z,1.15
2023-01-05T03:27:31.790Z,1.65
2023-01-05T03:30:16.980Z,1.95
2023-01-05T03:33:07.346Z,2.00
2023-01-05T03:35:41.805Z,1.77
2023-01-05T03:38:18.382Z,1.45
2023-01-05T03:40:47.309Z,1.50
2023-01-05T03:43:15.403Z,2.03
2023-01-05T03:45:45.275Z,2.83
2023-01-05T03:48:12.926Z,1.83
2023-01-05T03:50:41.840Z,1.30
2023-01-05T03:53:09.423Z,1.92
2023-01-05T03:55:37.017Z,2.47
2023-01-05T03:58:04.645Z,2.28
2023-01-05T04:00:33.371Z,2.75
2023-01-05T04:03:03.228Z,2.17
2023-01-05T04:05:30.944Z,1.27
2023-01-05T04:08:00.172Z,2.55
2023-01-05T04:10:27.822Z,2.15
2023-01-05T04:12:55.533Z,2.10
2023-01-05T04:15:23.194Z,1.35
2023-01-05T04:17:50.794Z,2.60
2023-01-05T04:20:19.366Z,1.95
2023-01-05T04:22:47.050Z,1.38
2023-01-05T04:25:16.150Z,2.20
2023-01-05T04:27:43.749Z,2.08
2023-01-05T04:30:11.936Z,1.60
2023-01-05T04:32:39.540Z,1.35
2023-01-05T04:35:11.230Z,2.13
2023-01-05T04:37:39.808Z,1.95
2023-01-05T04:40:08.406Z,2.63
2023-01-05T04:42:37.556Z,2.25
2023-01-05T04:45:06.142Z,2.25
2023-01-05T04:47:33.827Z,1.95
2023-01-05T04:50:01.670Z,2.20
2023-01-05T04:52:29.416Z,1.58
2023-01-05T04:54:57.042Z,2.40
2023-01-05T04:57:24.763Z,1.80
2023-01-05T04:59:53.722Z,2.72
2023-01-05T05:02:21.646Z,1.55
2023-01-05T05:04:49.455Z,1.67
2023-01-05T05:07:17.070Z,1.80
2023-01-05T05:09:44.935Z,2.28
2023-01-05T05:12:13.452Z,2.17
2023-01-05T05:14:41.191Z,1.48
2023-01-05T05:17:10.132Z,2.25
2023-01-05T05:19:37.695Z,2.47
2023-01-05T05:22:05.523Z,1.52
2023-01-05T05:24:33.366Z,1.30
2023-01-05T05:27:01.443Z,1.52
2023-01-05T05:29:29.134Z,2.03
2023-01-05T05:31:56.945Z,2.47
2023-01-05T05:34:25.871Z,1.92
2023-01-05T05:36:53.496Z,2.15
2023-01-05T05:39:22.204Z,1.73
2023-01-05T05:41:49.811Z,2.08
2023-01-05T05:44:17.472Z,2.42
2023-01-05T05:46:45.308Z,1.85
2023-01-05T05:49:12.927Z,1.52
2023-01-05T05:51:41.887Z,2.40
2023-01-05T05:54:09.730Z,3.92
2023-01-05T05:56:37.324Z,2.47
2023-01-05T05:59:04.911Z,1.92
2023-01-05T06:01:32.632Z,2.30
2023-01-05T06:04:00.408Z,3.33
2023-01-05T06:06:27.996Z,4.47
2023-01-05T06:08:56.943Z,3.65
2023-01-05T06:11:24.605Z,3.35
2023-01-05T06:13:52.514Z,2.03
2023-01-05T06:16:20.228Z,3.38
2023-01-05T06:18:47.874Z,4.68
2023-01-05T06:21:15.503Z,4.53
2023-01-05T06:23:43.506Z,2.88
2023-01-05T06:26:12.453Z,4.05
2023-01-05T06:28:40.121Z,5.28
2023-01-05T06:31:07.978Z,9.13
2023-01-05T06:33:35.704Z,3.95
2023-01-05T06:36:03.415Z,3.08
2023-01-05T06:38:31.014Z,2.60
2023-01-05T06:40:59.320Z,2.58
2023-01-05T06:43:28.307Z,2.50
2023-01-05T06:45:55.996Z,2.15
2023-01-05T06:48:23.705Z,2.13
2023-01-05T06:50:51.390Z,2.03
2023-01-05T06:53:19.532Z,3.33
2023-01-05T06:55:47.327Z,2.78
2023-01-05T06:58:15.011Z,2.83
2023-01-05T07:00:44.156Z,2.13
2023-01-05T07:03:14.329Z,2.20
2023-01-05T07:05:42.283Z,3.25
2023-01-05T07:08:09.983Z,2.40
2023-01-05T07:10:37.631Z,2.33
2023-01-05T07:13:05.265Z,2.67
2023-01-05T07:15:32.873Z,2.03
2023-01-05T07:18:01.781Z,2.13
2023-01-05T07:20:29.581Z,2.42
2023-01-05T07:22:57.358Z,2.20
2023-01-05T07:25:31.095Z,2.05
2023-01-05T07:27:58.889Z,3.75
2023-01-05T07:30:26.625Z,2.63
2023-01-05T07:32:58.704Z,2.67
2023-01-05T07:35:28.228Z,2.17
2023-01-05T07:37:56.862Z,2.20
2023-01-05T07:40:24.675Z,2.55
2023-01-05T07:42:53.540Z,2.53
2023-01-05T07:45:21.981Z,2.83
2023-01-05T07:47:49.692Z,1.20
2023-01-05T07:50:17.387Z,2.67
2023-01-05T07:52:46.417Z,2.35
2023-01-05T07:55:14.317Z,2.72
2023-01-05T07:57:42.076Z,2.03
2023-01-05T08:00:11.800Z,2.17
2023-01-05T08:02:39.567Z,3.28
2023-01-05T08:05:07.826Z,1.90
2023-01-05T08:07:36.118Z,2.08
2023-01-05T08:10:23.577Z,1.60
2023-01-05T08:13:08.790Z,1.63
2023-01-05T08:15:36.534Z,3.25
2023-01-05T08:18:04.409Z,1.75
2023-01-05T08:20:31.993Z,1.88
2023-01-05T08:22:59.585Z,2.50
2023-01-05T08:25:28.874Z,2.08
2023-01-05T08:27:56.552Z,2.15
2023-01-05T08:30:24.227Z,1.90
2023-01-05T08:32:51.885Z,2.90
2023-01-05T08:35:19.495Z,1.88
2023-01-05T08:37:47.271Z,2.17
2023-01-05T08:40:15.097Z,2.30
2023-01-05T08:42:47.973Z,2.15
2023-01-05T08:45:16.120Z,2.67
2023-01-05T08:47:44.207Z,1.92
2023-01-05T08:50:12.317Z,2.28
2023-01-05T08:52:40.657Z,1.90
2023-01-05T08:55:09.036Z,2.17
2023-01-05T08:57:36.718Z,2.25
2023-01-05T09:00:09.493Z,2.30
2023-01-05T09:02:37.601Z,2.90
2023-01-05T09:05:06.062Z,1.75
2023-01-05T09:07:33.724Z,3.67
2023-01-05T09:10:01.461Z,2.53
2023-01-05T09:12:32.992Z,2.50
2023-01-05T09:15:01.040Z,1.83
2023-01-05T09:17:30.022Z,2.83
2023-01-05T09:19:57.813Z,2.25
2023-01-05T09:22:25.591Z,2.50
2023-01-05T09:24:53.191Z,1.92
2023-01-05T09:27:20.838Z,2.50
2023-01-05T09:29:48.507Z,3.10
2023-01-05T09:32:16.059Z,1.75
2023-01-05T09:34:45.049Z,2.50
2023-01-05T09:37:12.733Z,1.73
2023-01-05T09:39:40.377Z,1.90
2023-01-05T09:42:14.496Z,2.10
2023-01-05T09:44:46.074Z,2.40
2023-01-05T09:47:18.158Z,1.67
2023-01-05T09:49:49.995Z,2.78
2023-01-05T09:52:21.790Z,2.17
2023-01-05T09:54:49.935Z,1.13
2023-01-05T09:57:20.325Z,1.83
2023-01-05T09:59:50.655Z,1.80
2023-01-05T10:02:25.189Z,1.48
2023-01-05T10:04:55.196Z,2.10
2023-01-05T10:07:32.909Z,1.70
2023-01-05T10:10:07.189Z,1.58
2023-01-05T10:13:01.559Z,1.80
2023-01-05T10:15:34.016Z,1.80
2023-01-05T10:18:03.947Z,1.90
2023-01-05T10:20:50.899Z,1.40
2023-01-05T10:23:32.505Z,2.00
2023-01-05T10:26:09.027Z,1.45
2023-01-05T10:28:44.591Z,1.27
2023-01-05T10:31:23.338Z,1.15
2023-01-05T10:33:57.841Z,1.55
2023-01-05T10:37:07.495Z,1.58
2023-01-05T10:39:56.450Z,1.27
2023-01-05T10:42:37.805Z,1.70
2023-01-05T10:45:10.386Z,1.83
2023-01-05T10:47:41.572Z,1.17
2023-01-05T10:50:29.786Z,1.10
2023-01-05T10:52:59.972Z,1.10
2023-01-05T10:55:31.109Z,1.48
2023-01-05T10:57:59.479Z,1.40
2023-01-05T11:00:42.219Z,1.13
2023-01-05T11:03:15.804Z,1.00
2023-01-05T11:05:45.690Z,1.10
2023-01-05T11:08:20.702Z,1.25
2023-01-05T11:10:53.979Z,1.40
2023-01-05T11:13:32.430Z,0.90
2023-01-05T11:16:06.508Z,1.40
2023-01-05T11:18:37.826Z,1.42
2023-01-05T11:21:11.852Z,0.93
2023-01-05T11:23:43.992Z,0.80
2023-01-05T11:26:24.428Z,1.10
2023-01-05T11:29:13.069Z,0.40
2023-01-05T11:31:48.717Z,0.40
2023-01-05T11:34:38.797Z,0.30
2023-01-05T11:37:14.332Z,0.45
2023-01-05T11:39:50.377Z,0.70
2023-01-05T11:42:25.282Z,0.22
2023-01-05T11:44:55.934Z,0.32
2023-01-05T11:47:28.962Z,0.40
2023-01-05T11:50:09.245Z,0.52
2023-01-05T11:52:40.969Z,0.50
2023-01-05T11:55:31.778Z,0.40
2023-01-05T11:58:14.692Z,0.57
2023-01-05T12:01:11.283Z,0.50
2023-01-05T12:03:59.222Z,0.50
2023-01-05T12:06:46.712Z,0.47
2023-01-05T12:09:22.275Z,0.47
2023-01-05T12:12:06.904Z,0.40
2023-01-05T12:14:54.182Z,0.50
2023-01-05T12:17:31.272Z,0.80
2023-01-05T12:20:23.287Z,0.70
2023-01-05T12:23:17.272Z,0.40
2023-01-05T12:25:57.224Z,0.40
2023-01-05T12:28:42.810Z,0.77
2023-01-05T12:34:52.388Z,1.23
2023-01-05T12:37:31.582Z,1.20
2023-01-05T12:40:24.639Z,0.65
2023-01-05T12:43:00.921Z,0.80
2023-01-05T12:45:52.345Z,0.95
2023-01-05T12:48:24.851Z,0.65
2023-01-05T12:51:00.257Z,1.40
2023-01-05T12:53:39.037Z,1.13
2023-01-05T12:56:18.573Z,1.10
2023-01-05T12:58:54.284Z,0.88
2023-01-05T13:01:28.644Z,0.95
2023-01-05T13:04:00.142Z,0.60
2023-01-05T13:06:32.293Z,0.60
2023-01-05T13:09:05.569Z,0.85
2023-01-05T13:11:39.743Z,1.00
2023-01-05T13:14:15.044Z,0.95
2023-01-05T13:16:48.059Z,1.00
2023-01-05T13:19:20.657Z,1.00
2023-01-05T13:21:49.014Z,0.65
2023-01-05T13:24:23.007Z,1.17
2023-01-05T13:26:51.116Z,1.13
2023-01-05T13:29:24.785Z,1.60
2023-01-05T13:32:18.563Z,1.00
2023-01-05T13:35:14.667Z,0.98
2023-01-05T13:37:55.789Z,1.25
2023-01-05T13:40:46.183Z,1.00
2023-01-05T13:43:46.434Z,0.60
2023-01-05T13:46:31.501Z,0.90
2023-01-05T13:49:21.245Z,0.55
2023-01-05T13:51:55.191Z,1.23
2023-01-05T13:54:48.969Z,0.75
2023-01-05T13:57:24.763Z,0.70
2023-01-05T14:00:04.721Z,0.70
2023-01-05T14:02:38.731Z,0.63
2023-01-05T14:05:16.484Z,0.60
2023-01-05T14:07:44.434Z,0.70
2023-01-05T14:10:22.586Z,0.80
2023-01-05T14:12:54.031Z,1.17
2023-01-05T14:15:40.694Z,0.75
2023-01-05T14:18:09.240Z,0.60
2023-01-05T14:20:47.217Z,0.65
2023-01-05T14:23:52.440Z,0.43
2023-01-05T14:26:58.540Z,1.70
2023-01-05T14:30:00.327Z,1.67
2023-01-05T14:32:29.844Z,1.20
2023-01-05T14:35:01.007Z,1.40
2023-01-05T14:37:36.464Z,1.83
2023-01-05T14:40:21.298Z,0.90
2023-01-05T14:42:50.666Z,1.02
2023-01-05T14:45:24.825Z,1.00
2023-01-05T14:47:56.319Z,0.90
2023-01-05T14:50:32.386Z,0.50
2023-01-05T14:53:04.955Z,0.85
2023-01-05T14:55:39.523Z,0.85
2023-01-05T14:58:14.265Z,0.98
2023-01-05T15:00:46.234Z,0.90
2023-01-05T15:03:21.011Z,1.00
2023-01-05T15:05:58.911Z,1.60
2023-01-05T15:09:09.517Z,0.90
2023-01-05T15:11:52.051Z,1.38
2023-01-05T15:14:40.137Z,0.90
2023-01-05T15:17:22.797Z,1.08
2023-01-05T15:20:09.483Z,0.95
2023-01-05T15:22:56.572Z,1.63
2023-01-05T15:26:07.615Z,1.10
2023-01-05T15:29:02.474Z,1.77
2023-01-05T15:31:36.296Z,1.88
2023-01-05T15:34:20.535Z,1.40
2023-01-05T15:36:54.654Z,1.13
2023-01-05T15:39:31.565Z,0.75
2023-01-05T15:42:06.345Z,1.00
2023-01-05T15:44:40.030Z,1.17
2023-01-05T15:47:10.565Z,0.68
2023-01-05T15:49:39.842Z,1.52
2023-01-05T15:52:18.814Z,1.50
2023-01-05T15:54:58.294Z,1.35
2023-01-05T15:57:27.369Z,1.17
2023-01-05T15:59:55.224Z,1.13
2023-01-05T16:02:25.390Z,1.30
2023-01-05T16:05:11.376Z,1.85
2023-01-05T16:07:43.710Z,1.50
2023-01-05T16:10:20.474Z,1.77
2023-01-05T16:13:02.076Z,1.88
2023-01-05T16:15:34.033Z,1.13
2023-01-05T16:18:03.321Z,1.08
2023-01-05T16:20:31.326Z,1.02
2023-01-05T16:23:08.749Z,1.38
2023-01-05T16:25:41.831Z,1.15
2023-01-05T16:28:17.480Z,1.17
2023-01-05T16:30:46.915Z,1.33
2023-01-05T16:33:27.528Z,1.58
2023-01-05T16:36:08.990Z,2.03
2023-01-05T16:38:37.302Z,1.42
2023-01-05T16:41:09.285Z,1.42
2023-01-05T16:43:44.127Z,1.65
2023-01-05T16:46:35.131Z,1.63
2023-01-05T16:49:32.819Z,1.77
2023-01-05T16:52:01.962Z,1.08
2023-01-05T16:54:37.100Z,1.77
2023-01-05T16:57:28.916Z,1.50
2023-01-05T16:59:59.816Z,2.40
2023-01-05T17:02:45.381Z,2.50
2023-01-05T17:05:16.039Z,2.75
2023-01-05T17:07:46.703Z,3.70
2023-01-05T17:10:19.390Z,2.90
2023-01-05T17:12:55.704Z,3.05
2023-01-05T17:15:29.459Z,3.30
2023-01-05T17:17:57.905Z,3.10
2023-01-05T17:20:29.214Z,3.17
2023-01-05T17:22:57.205Z,3.45
2023-01-05T17:25:30.508Z,3.90
2023-01-05T17:27:58.166Z,2.97
2023-01-05T17:30:27.243Z,3.63
2023-01-05T17:32:55.160Z,2.72
2023-01-05T17:35:22.860Z,2.25
2023-01-05T17:37:50.524Z,2.45
2023-01-05T17:40:20.542Z,3.13
2023-01-05T17:42:48.294Z,2.80
2023-01-05T17:45:17.915Z,3.70
2023-01-05T17:47:47.188Z,3.90
2023-01-05T17:50:17.356Z,2.88
2023-01-05T17:52:45.383Z,3.00
2023-01-05T17:55:13.832Z,4.43
2023-01-05T17:57:42.264Z,2.90
2023-01-05T18:00:13.355Z,3.08
2023-01-05T18:02:41.606Z,3.00
2023-01-05T18:05:12.223Z,3.97
2023-01-05T18:07:40.937Z,3.53
2023-01-05T18:10:11.600Z,3.65
2023-01-05T18:15:08.204Z,4.07
2023-01-05T18:20:13.603Z,3.65
2023-01-05T18:22:43.167Z,3.15
2023-01-05T18:25:12.559Z,2.97
2023-01-05T18:27:41.332Z,3.55
2023-01-05T18:30:12.363Z,3.65
2023-01-05T18:32:40.773Z,3.22
2023-01-05T18:35:11.116Z,3.83
2023-01-05T18:37:39.319Z,3.05
2023-01-05T18:40:08.413Z,3.53
2023-01-05T18:42:37.077Z,5.03
2023-01-05T18:45:18.725Z,3.72
2023-01-05T18:47:57.091Z,4.10
2023-01-05T18:50:26.692Z,3.13
2023-01-05T18:52:54.459Z,2.97
2023-01-05T18:55:22.084Z,3.17
2023-01-05T18:57:49.790Z,2.97
2023-01-05T19:00:17.828Z,3.97
2023-01-05T19:02:45.492Z,3.95
2023-01-05T19:05:13.202Z,4.97
2023-01-05T19:07:42.189Z,6.03
2023-01-05T19:10:10.288Z,7.25
2023-01-05T19:12:37.961Z,6.85
2023-01-05T19:15:06.384Z,5.55
2023-01-05T19:17:34.457Z,5.35
2023-01-05T19:20:02.940Z,6.00
2023-01-05T19:22:30.945Z,5.03
2023-01-05T19:25:00.232Z,4.93
2023-01-05T19:27:28.421Z,5.38
2023-01-05T19:29:56.063Z,4.60
2023-01-05T19:32:23.762Z,4.78
2023-01-05T19:34:51.410Z,4.55
2023-01-05T19:37:19.183Z,5.43
2023-01-05T19:39:46.811Z,6.00
2023-01-05T19:42:16.419Z,5.05
2023-01-05T19:44:44.907Z,4.18
2023-01-05T19:47:12.539Z,5.15
2023-01-05T19:49:40.812Z,5.20
2023-01-05T19:52:08.541Z,5.80
2023-01-05T19:54:38.957Z,5.47
2023-01-05T19:57:06.755Z,5.85
2023-01-05T19:59:36.231Z,4.68
2023-01-05T20:02:06.479Z,5.50
2023-01-05T20:04:34.583Z,7.22
2023-01-05T20:07:04.202Z,7.15
2023-01-05T20:09:32.620Z,6.40
2023-01-05T20:12:13.292Z,6.72
2023-01-05T20:14:43.771Z,6.38
2023-01-05T20:17:13.179Z,6.10
2023-01-05T20:19:41.656Z,5.63
2023-01-05T20:22:14.133Z,6.63
2023-01-05T20:24:43.274Z,6.55
2023-01-05T20:27:13.223Z,5.65
2023-01-05T20:29:41.328Z,6.05
2023-01-05T20:32:13.665Z,5.05
2023-01-05T20:34:43.452Z,5.65
2023-01-05T20:37:11.533Z,5.40
2023-01-05T20:39:40.342Z,5.57
2023-01-05T20:42:10.532Z,5.30
2023-01-05T20:44:40.197Z,5.28
2023-01-05T20:47:13.567Z,5.32
2023-01-05T20:49:45.116Z,5.65
2023-01-05T20:52:14.322Z,5.80
2023-01-05T20:54:42.858Z,5.47
2023-01-05T20:57:10.888Z,5.05
2023-01-05T20:59:40.611Z,4.15
2023-01-05T21:02:22.920Z,5.35
2023-01-05T21:04:52.740Z,5.38
2023-01-05T21:07:21.074Z,5.50
2023-01-05T21:09:50.576Z,6.05
2023-01-05T21:12:18.920Z,5.10
2023-01-05T21:14:46.531Z,4.97
2023-01-05T21:17:15.478Z,5.47
2023-01-05T21:19:43.406Z,6.43
2023-01-05T21:22:11.336Z,6.72
2023-01-05T21:24:39.054Z,5.78
2023-01-05T21:27:06.611Z,6.60
2023-01-05T21:29:34.897Z,7.07
2023-01-05T21:32:02.548Z,7.13
2023-01-05T21:34:31.635Z,7.28
2023-01-05T21:36:59.264Z,6.63
2023-01-05T21:39:28.369Z,7.30
2023-01-05T21:42:13.623Z,6.45
2023-01-05T21:44:41.485Z,7.88
2023-01-05T21:47:09.681Z,5.32
2023-01-05T21:49:38.649Z,7.15
2023-01-05T21:52:24.695Z,6.75
2023-01-05T21:55:09.986Z,7.15
2023-01-05T21:57:37.597Z,6.25
2023-01-05T22:00:06.737Z,6.50
2023-01-05T22:02:35.067Z,6.40
2023-01-05T22:05:04.356Z,6.68
2023-01-05T22:07:31.967Z,6.50
2023-01-05T22:09:59.595Z,7.15
2023-01-05T22:12:27.202Z,7.38
2023-01-05T22:14:54.841Z,6.93
2023-01-05T22:17:23.200Z,6.85
2023-01-05T22:19:53.194Z,6.72
2023-01-05T22:22:22.772Z,6.25
2023-01-05T22:24:50.457Z,6.63
2023-01-05T22:27:19.362Z,5.97
2023-01-05T22:29:46.941Z,6.25
2023-01-05T22:32:15.028Z,6.28
2023-01-05T22:34:44.241Z,5.97
2023-01-05T22:37:11.941Z,5.70
2023-01-05T22:39:40.863Z,6.85
2023-01-05T22:42:08.491Z,5.75
2023-01-05T22:44:36.104Z,5.03
2023-01-05T22:47:03.666Z,5.85
2023-01-05T22:49:31.473Z,5.00
2023-01-05T22:51:59.493Z,5.78
2023-01-05T22:54:27.109Z,7.40
2023-01-05T22:56:56.039Z,5.45
2023-01-05T22:59:23.696Z,5.85
2023-01-05T23:01:51.678Z,5.72
2023-01-05T23:04:19.321Z,5.22
2023-01-05T23:06:46.988Z,4.43
2023-01-05T23:09:17.297Z,5.97
2023-01-05T23:11:46.798Z,4.45
2023-01-05T23:14:18.266Z,5.43
2023-01-05T23:16:46.411Z,5.85
2023-01-05T23:19:14.989Z,5.10
2023-01-05T23:21:42.768Z,4.60
2023-01-05T23:24:10.808Z,5.25
2023-01-05T23:26:38.644Z,5.05
2023-01-05T23:29:06.653Z,5.50
2023-01-05T23:31:35.775Z,6.05
2023-01-05T23:34:03.651Z,4.75
2023-01-05T23:36:31.988Z,6.00
2023-01-05T23:39:00.044Z,4.22
2023-01-05T23:41:27.660Z,4.25
2023-01-05T23:43:55.294Z,5.07
2023-01-05T23:46:24.431Z,4.43
2023-01-05T23:48:53.684Z,5.10
2023-01-05T23:51:23.460Z,4.70
2023-01-05T23:53:52.886Z,3.40
2023-01-05T23:56:21.963Z,4.25
2023-01-05T23:58:54.710Z,5.25
